createdAt,value
2017-12-10T00:00:42.214Z,1002.68
2017-12-10T00:01:42.198Z,1002.67
2017-12-10T00:02:42.188Z,1002.55
2017-12-10T00:03:42.177Z,1002.61
2017-12-10T00:04:42.163Z,1002.61
2017-12-10T00:05:42.152Z,1002.53
2017-12-10T00:06:42.140Z,1002.47
2017-12-10T00:07:42.130Z,1002.57
2017-12-10T00:08:42.118Z,1002.47
2017-12-10T00:09:42.107Z,1002.44
2017-12-10T00:10:42.097Z,1002.38
2017-12-10T00:11:42.084Z,1002.38
2017-12-10T00:12:42.072Z,1002.31
2017-12-10T00:13:42.067Z,1002.32
2017-12-10T00:14:42.050Z,1002.34
2017-12-10T00:15:42.040Z,1002.25
2017-12-10T00:16:42.027Z,1002.24
2017-12-10T00:17:42.015Z,1002.24
2017-12-10T00:18:42.005Z,1002.15
2017-12-10T00:19:41.993Z,1002.15
2017-12-10T00:20:41.982Z,1002.12
2017-12-10T00:21:41.970Z,1002.09
2017-12-10T00:22:41.958Z,1001.99
2017-12-10T00:23:41.948Z,1002.05
2017-12-10T00:24:41.935Z,1002.02
2017-12-10T00:25:41.924Z,1001.98
2017-12-10T00:26:41.913Z,1001.97
2017-12-10T00:27:41.902Z,1002.02
2017-12-10T00:28:41.891Z,1001.91
2017-12-10T00:29:41.880Z,1001.92
2017-12-10T00:30:41.868Z,1001.91
2017-12-10T00:31:41.856Z,1001.87
2017-12-10T00:32:41.845Z,1001.83
2017-12-10T00:33:41.833Z,1001.71
2017-12-10T00:34:41.822Z,1001.75
2017-12-10T00:35:41.811Z,1001.75
2017-12-10T00:36:41.799Z,1001.72
2017-12-10T00:37:41.788Z,1001.70
2017-12-10T00:38:41.776Z,1001.72
2017-12-10T00:39:41.765Z,1001.70
2017-12-10T00:40:41.754Z,1001.69
2017-12-10T00:41:41.743Z,1001.67
2017-12-10T00:42:41.731Z,1001.66
2017-12-10T00:43:41.721Z,1001.65
2017-12-10T00:44:41.707Z,1001.55
2017-12-10T00:45:41.696Z,1001.54
2017-12-10T00:46:41.686Z,1001.48
2017-12-10T00:47:41.674Z,1001.52
2017-12-10T00:48:41.663Z,1001.48
2017-12-10T00:49:41.651Z,1001.48
2017-12-10T00:50:41.641Z,1001.47
2017-12-10T00:51:41.630Z,1001.47
2017-12-10T00:52:41.618Z,1001.37
2017-12-10T00:53:41.605Z,1001.38
2017-12-10T00:54:41.595Z,1001.33
2017-12-10T00:55:41.585Z,1001.34
2017-12-10T00:56:41.572Z,1001.27
2017-12-10T00:57:41.561Z,1001.23
2017-12-10T00:58:41.550Z,1001.26
2017-12-10T00:59:41.538Z,1001.21
2017-12-10T01:00:41.526Z,1001.18
2017-12-10T01:01:41.515Z,1001.16
2017-12-10T01:02:41.506Z,1001.15
2017-12-10T01:03:41.493Z,1001.15
2017-12-10T01:04:41.492Z,1001.11
2017-12-10T01:05:41.470Z,1001.10
2017-12-10T01:06:41.461Z,1001.02
2017-12-10T01:07:41.453Z,1001.02
2017-12-10T01:08:41.436Z,1001.01
2017-12-10T01:09:41.424Z,1000.95
2017-12-10T01:10:41.416Z,1000.94
2017-12-10T01:11:41.402Z,1000.89
2017-12-10T01:12:41.391Z,1000.90
2017-12-10T01:13:41.383Z,1000.85
2017-12-10T01:14:41.396Z,1000.89
2017-12-10T01:15:41.361Z,1000.92
2017-12-10T01:16:41.346Z,1000.89
2017-12-10T01:17:41.336Z,1000.82
2017-12-10T01:18:41.324Z,1000.83
2017-12-10T01:19:41.313Z,1000.82
2017-12-10T01:20:41.300Z,1000.84
2017-12-10T01:21:41.289Z,1000.81
2017-12-10T01:22:41.278Z,1000.74
2017-12-10T01:23:41.266Z,1000.78
2017-12-10T01:24:41.259Z,1000.68
2017-12-10T01:25:41.248Z,1000.70
2017-12-10T01:26:41.237Z,1000.73
2017-12-10T01:27:41.226Z,1000.69
2017-12-10T01:28:41.213Z,1000.63
2017-12-10T01:29:41.203Z,1000.60
2017-12-10T01:30:41.192Z,1000.56
2017-12-10T01:31:41.181Z,1000.54
2017-12-10T01:32:41.164Z,1000.61
2017-12-10T01:33:41.154Z,1000.58
2017-12-10T01:34:41.142Z,1000.47
2017-12-10T01:35:41.133Z,1000.49
2017-12-10T01:36:41.119Z,1000.47
2017-12-10T01:37:41.108Z,1000.51
2017-12-10T01:38:41.096Z,1000.42
2017-12-10T01:39:41.085Z,1000.45
2017-12-10T01:40:41.077Z,1000.41
2017-12-10T01:41:41.067Z,1000.39
2017-12-10T01:42:41.055Z,1000.46
2017-12-10T01:43:41.045Z,1000.43
2017-12-10T01:44:41.032Z,1000.36
2017-12-10T01:45:41.021Z,1000.31
2017-12-10T01:46:41.010Z,1000.34
2017-12-10T01:47:41.000Z,1000.31
2017-12-10T01:48:40.983Z,1000.27
2017-12-10T01:49:40.971Z,1000.33
2017-12-10T01:50:40.961Z,1000.29
2017-12-10T01:51:40.949Z,1000.32
2017-12-10T01:52:40.937Z,1000.30
2017-12-10T01:53:40.926Z,1000.30
2017-12-10T01:54:40.917Z,1000.32
2017-12-10T01:55:40.904Z,1000.29
2017-12-10T01:56:40.896Z,1000.24
2017-12-10T01:57:40.885Z,1000.18
2017-12-10T01:58:40.874Z,1000.08
2017-12-10T01:59:40.863Z,1000.01
2017-12-10T02:00:40.851Z,1000.04
2017-12-10T02:01:40.840Z,1000.01
2017-12-10T02:02:40.829Z,999.98
2017-12-10T02:03:40.818Z,999.91
2017-12-10T02:04:40.801Z,999.88
2017-12-10T02:05:40.792Z,999.94
2017-12-10T02:06:40.780Z,999.84
2017-12-10T02:07:40.769Z,999.86
2017-12-10T02:08:40.759Z,999.83
2017-12-10T02:09:40.749Z,999.84
2017-12-10T02:10:40.736Z,999.82
2017-12-10T02:11:40.723Z,999.78
2017-12-10T02:12:40.717Z,999.70
2017-12-10T02:13:40.707Z,999.66
2017-12-10T02:14:40.694Z,999.62
2017-12-10T02:15:40.684Z,999.57
2017-12-10T02:16:40.675Z,999.53
2017-12-10T02:17:40.656Z,999.50
2017-12-10T02:18:40.646Z,999.46
2017-12-10T02:19:40.638Z,999.45
2017-12-10T02:20:40.626Z,999.40
2017-12-10T02:21:40.615Z,999.38
2017-12-10T02:22:40.605Z,999.32
2017-12-10T02:23:40.594Z,999.33
2017-12-10T02:24:40.583Z,999.29
2017-12-10T02:25:40.570Z,999.20
2017-12-10T02:26:40.561Z,999.19
2017-12-10T02:27:40.549Z,999.17
2017-12-10T02:28:40.534Z,999.17
2017-12-10T02:29:40.521Z,999.22
2017-12-10T02:30:40.510Z,999.22
2017-12-10T02:31:40.501Z,999.21
2017-12-10T02:32:40.487Z,999.14
2017-12-10T02:33:40.476Z,999.04
2017-12-10T02:34:40.466Z,999.05
2017-12-10T02:35:40.454Z,999.05
2017-12-10T02:36:40.446Z,998.99
2017-12-10T02:37:40.434Z,998.99
2017-12-10T02:38:40.423Z,998.97
2017-12-10T02:39:40.412Z,998.92
2017-12-10T02:40:40.400Z,998.86
2017-12-10T02:41:40.390Z,998.88
2017-12-10T02:42:40.378Z,998.91
2017-12-10T02:43:40.368Z,998.83
2017-12-10T02:44:40.350Z,998.80
2017-12-10T02:45:40.340Z,998.76
2017-12-10T02:46:40.328Z,998.67
2017-12-10T02:47:40.317Z,998.74
2017-12-10T02:48:40.308Z,998.72
2017-12-10T02:49:40.293Z,998.77
2017-12-10T02:50:40.282Z,998.70
2017-12-10T02:51:40.272Z,998.70
2017-12-10T02:52:40.262Z,998.71
2017-12-10T02:53:40.252Z,998.63
2017-12-10T02:54:40.240Z,998.68
2017-12-10T02:55:40.229Z,998.66
2017-12-10T02:56:40.217Z,998.69
2017-12-10T02:57:40.205Z,998.55
2017-12-10T02:58:40.193Z,998.59
2017-12-10T02:59:40.183Z,998.51
2017-12-10T03:00:40.167Z,998.56
2017-12-10T03:01:40.155Z,998.55
2017-12-10T03:02:40.144Z,998.53
2017-12-10T03:03:40.132Z,998.46
2017-12-10T03:04:40.120Z,998.41
2017-12-10T03:05:40.108Z,998.48
2017-12-10T03:06:40.097Z,998.45
2017-12-10T03:07:40.087Z,998.33
2017-12-10T03:08:40.078Z,998.34
2017-12-10T03:09:40.066Z,998.29
2017-12-10T03:10:40.061Z,998.27
2017-12-10T03:11:40.044Z,998.20
2017-12-10T03:12:40.031Z,998.21
2017-12-10T03:13:40.020Z,998.14
2017-12-10T03:14:40.009Z,998.19
2017-12-10T03:15:39.998Z,998.09
2017-12-10T03:16:39.981Z,998.11
2017-12-10T03:17:39.969Z,998.13
2017-12-10T03:18:39.958Z,998.07
2017-12-10T03:19:39.947Z,998.06
2017-12-10T03:20:39.934Z,998.06
2017-12-10T03:21:39.923Z,998.07
2017-12-10T03:22:39.916Z,998.00
2017-12-10T03:23:39.900Z,997.95
2017-12-10T03:24:39.891Z,997.89
2017-12-10T03:25:39.880Z,997.84
2017-12-10T03:26:39.870Z,997.81
2017-12-10T03:27:39.860Z,997.73
2017-12-10T03:28:39.845Z,997.74
2017-12-10T03:29:39.833Z,997.71
2017-12-10T03:30:39.823Z,997.68
2017-12-10T03:31:39.810Z,997.63
2017-12-10T03:32:39.793Z,997.62
2017-12-10T03:33:39.783Z,997.53
2017-12-10T03:34:39.770Z,997.53
2017-12-10T03:35:39.758Z,997.47
2017-12-10T03:36:39.747Z,997.48
2017-12-10T03:37:39.733Z,997.48
2017-12-10T03:38:39.722Z,997.43
2017-12-10T03:39:39.711Z,997.37
2017-12-10T03:40:39.701Z,997.35
2017-12-10T03:41:39.695Z,997.34
2017-12-10T03:42:39.679Z,997.28
2017-12-10T03:43:39.667Z,997.22
2017-12-10T03:44:39.655Z,997.24
2017-12-10T03:45:39.643Z,997.17
2017-12-10T03:46:39.631Z,997.11
2017-12-10T03:47:39.620Z,997.15
2017-12-10T03:48:39.602Z,997.21
2017-12-10T03:49:39.590Z,997.16
2017-12-10T03:50:39.577Z,997.14
2017-12-10T03:51:39.566Z,997.10
2017-12-10T03:52:39.555Z,997.04
2017-12-10T03:53:39.542Z,997.02
2017-12-10T03:54:39.530Z,997.05
2017-12-10T03:55:39.518Z,997.00
2017-12-10T03:56:39.511Z,997.04
2017-12-10T03:57:39.498Z,996.97
2017-12-10T03:58:39.486Z,996.98
2017-12-10T03:59:39.475Z,996.95
2017-12-10T04:00:39.463Z,997.04
2017-12-10T04:01:39.450Z,996.95
2017-12-10T04:02:39.438Z,996.94
2017-12-10T04:03:39.427Z,996.98
2017-12-10T04:04:39.409Z,997.00
2017-12-10T04:05:39.399Z,997.00
2017-12-10T04:06:39.386Z,996.94
2017-12-10T04:07:39.379Z,996.86
2017-12-10T04:08:39.362Z,996.78
2017-12-10T04:09:39.350Z,996.80
2017-12-10T04:10:39.338Z,996.75
2017-12-10T04:11:39.327Z,996.75
2017-12-10T04:12:39.318Z,996.74
2017-12-10T04:13:39.306Z,996.70
2017-12-10T04:14:39.295Z,996.73
2017-12-10T04:15:39.283Z,996.76
2017-12-10T04:16:39.271Z,996.64
2017-12-10T04:17:39.259Z,996.65
2017-12-10T04:18:39.246Z,996.58
2017-12-10T04:19:39.235Z,996.50
2017-12-10T04:20:39.218Z,996.53
2017-12-10T04:21:39.207Z,996.51
2017-12-10T04:22:39.195Z,996.44
2017-12-10T04:23:39.183Z,996.44
2017-12-10T04:24:39.174Z,996.42
2017-12-10T04:25:39.163Z,996.36
2017-12-10T04:26:39.152Z,996.34
2017-12-10T04:27:39.140Z,996.30
2017-12-10T04:28:39.122Z,996.28
2017-12-10T04:29:39.111Z,996.23
2017-12-10T04:30:39.098Z,996.18
2017-12-10T04:31:39.089Z,996.20
2017-12-10T04:32:39.074Z,996.11
2017-12-10T04:33:39.062Z,996.10
2017-12-10T04:34:39.050Z,996.09
2017-12-10T04:35:39.037Z,996.07
2017-12-10T04:36:39.029Z,996.01
2017-12-10T04:37:39.018Z,996.05
2017-12-10T04:38:39.006Z,995.97
2017-12-10T04:39:38.993Z,995.98
2017-12-10T04:40:38.980Z,995.99
2017-12-10T04:41:38.968Z,995.92
2017-12-10T04:42:38.956Z,995.91
2017-12-10T04:43:38.944Z,995.80
2017-12-10T04:44:38.928Z,995.79
2017-12-10T04:45:38.915Z,995.76
2017-12-10T04:46:38.903Z,995.66
2017-12-10T04:47:38.891Z,995.63
2017-12-10T04:48:38.878Z,995.61
2017-12-10T04:49:38.868Z,995.54
2017-12-10T04:50:38.855Z,995.55
2017-12-10T04:51:38.843Z,995.56
2017-12-10T04:52:38.834Z,995.47
2017-12-10T04:53:38.821Z,995.46
2017-12-10T04:54:38.810Z,995.40
2017-12-10T04:55:38.799Z,995.37
2017-12-10T04:56:38.785Z,995.36
2017-12-10T04:57:38.773Z,995.28
2017-12-10T04:58:38.763Z,995.31
2017-12-10T04:59:38.749Z,995.23
2017-12-10T05:00:38.732Z,995.19
2017-12-10T05:01:38.720Z,995.17
2017-12-10T05:02:38.708Z,995.09
2017-12-10T05:03:38.697Z,995.10
2017-12-10T05:04:38.683Z,995.04
2017-12-10T05:05:38.671Z,995.01
2017-12-10T05:06:38.661Z,994.96
2017-12-10T05:07:38.648Z,994.95
2017-12-10T05:08:38.638Z,994.89
2017-12-10T05:09:38.627Z,994.84
2017-12-10T05:10:38.615Z,994.86
2017-12-10T05:11:38.604Z,994.76
2017-12-10T05:12:38.591Z,994.72
2017-12-10T05:13:38.579Z,994.64
2017-12-10T05:14:38.567Z,994.66
2017-12-10T05:15:38.554Z,994.62
2017-12-10T05:16:38.538Z,994.61
2017-12-10T05:17:38.527Z,994.54
2017-12-10T05:18:38.514Z,994.51
2017-12-10T05:19:38.502Z,994.48
2017-12-10T05:20:38.490Z,994.45
2017-12-10T05:21:38.477Z,994.38
2017-12-10T05:22:38.467Z,994.34
2017-12-10T05:23:38.454Z,994.31
2017-12-10T05:24:38.446Z,994.30
2017-12-10T05:25:38.433Z,994.25
2017-12-10T05:26:38.422Z,994.19
2017-12-10T05:27:38.409Z,994.13
2017-12-10T05:28:38.393Z,994.13
2017-12-10T05:29:38.381Z,994.11
2017-12-10T05:30:38.368Z,993.98
2017-12-10T05:31:38.357Z,993.96
2017-12-10T05:32:38.347Z,993.98
2017-12-10T05:33:38.337Z,993.91
2017-12-10T05:34:38.324Z,993.90
2017-12-10T05:35:38.313Z,993.82
2017-12-10T05:36:38.305Z,993.81
2017-12-10T05:37:38.287Z,993.76
2017-12-10T05:38:38.275Z,993.73
2017-12-10T05:39:38.264Z,993.66
2017-12-10T05:40:38.245Z,993.65
2017-12-10T05:41:38.240Z,993.53
2017-12-10T05:42:38.221Z,993.58
2017-12-10T05:43:38.211Z,993.54
2017-12-10T05:44:38.197Z,993.48
2017-12-10T05:45:38.185Z,993.44
2017-12-10T05:46:38.173Z,993.47
2017-12-10T05:47:38.162Z,993.35
2017-12-10T05:48:38.152Z,993.30
2017-12-10T05:49:38.140Z,993.37
2017-12-10T05:50:38.128Z,993.31
2017-12-10T05:51:38.116Z,993.26
2017-12-10T05:52:38.103Z,993.24
2017-12-10T05:53:38.090Z,993.25
2017-12-10T05:54:38.080Z,993.29
2017-12-10T05:55:38.067Z,993.22
2017-12-10T05:56:38.050Z,993.16
2017-12-10T05:57:38.037Z,993.23
2017-12-10T05:58:38.025Z,993.15
2017-12-10T05:59:38.015Z,993.11
2017-12-10T06:00:38.000Z,993.09
2017-12-10T06:01:37.988Z,993.02
2017-12-10T06:02:37.976Z,993.03
2017-12-10T06:03:37.965Z,993.03
2017-12-10T06:04:37.960Z,992.99
2017-12-10T06:05:37.944Z,992.91
2017-12-10T06:06:37.932Z,992.86
2017-12-10T06:07:37.919Z,992.87
2017-12-10T06:08:37.907Z,992.77
2017-12-10T06:09:37.894Z,992.79
2017-12-10T06:10:37.883Z,992.73
2017-12-10T06:11:37.871Z,992.67
2017-12-10T06:12:37.853Z,992.63
2017-12-10T06:13:37.840Z,992.54
2017-12-10T06:14:37.829Z,992.47
2017-12-10T06:15:37.817Z,992.43
2017-12-10T06:16:37.804Z,992.33
2017-12-10T06:17:37.791Z,992.28
2017-12-10T06:18:37.779Z,992.33
2017-12-10T06:19:37.771Z,992.28
2017-12-10T06:20:37.758Z,992.28
2017-12-10T06:21:37.747Z,992.31
2017-12-10T06:22:37.734Z,992.30
2017-12-10T06:23:37.722Z,992.30
2017-12-10T06:24:37.710Z,992.22
2017-12-10T06:25:37.697Z,992.16
2017-12-10T06:26:37.685Z,992.04
2017-12-10T06:27:37.701Z,992.02
2017-12-10T06:28:37.659Z,992.03
2017-12-10T06:29:37.644Z,992.01
2017-12-10T06:30:37.632Z,992.05
2017-12-10T06:31:37.619Z,992.02
2017-12-10T06:32:37.610Z,991.97
2017-12-10T06:33:37.598Z,991.95
2017-12-10T06:34:37.587Z,991.85
2017-12-10T06:35:37.574Z,991.89
2017-12-10T06:36:37.556Z,991.90
2017-12-10T06:37:37.544Z,991.83
2017-12-10T06:38:37.532Z,991.83
2017-12-10T06:39:37.520Z,991.80
2017-12-10T06:40:37.507Z,991.83
2017-12-10T06:41:37.495Z,991.84
2017-12-10T06:42:37.483Z,991.75
2017-12-10T06:43:37.472Z,991.73
2017-12-10T06:44:37.463Z,991.76
2017-12-10T06:45:37.449Z,991.72
2017-12-10T06:46:37.437Z,991.69
2017-12-10T06:47:37.425Z,991.64
2017-12-10T06:48:37.412Z,991.68
2017-12-10T06:49:37.400Z,991.62
2017-12-10T06:50:37.388Z,991.63
2017-12-10T06:51:37.376Z,991.61
2017-12-10T06:52:37.358Z,991.53
2017-12-10T06:53:37.346Z,991.51
2017-12-10T06:54:37.334Z,991.46
2017-12-10T06:55:37.322Z,991.40
2017-12-10T06:56:37.310Z,991.31
2017-12-10T06:57:37.297Z,991.30
2017-12-10T06:58:37.285Z,991.33
2017-12-10T06:59:37.273Z,991.29
2017-12-10T07:00:37.264Z,991.23
2017-12-10T07:01:37.252Z,991.29
2017-12-10T07:02:37.240Z,991.13
2017-12-10T07:03:37.228Z,991.11
2017-12-10T07:04:37.222Z,991.04
2017-12-10T07:05:37.203Z,991.18
2017-12-10T07:06:37.192Z,990.99
2017-12-10T07:07:37.180Z,990.96
2017-12-10T07:08:37.162Z,990.92
2017-12-10T07:09:37.150Z,990.76
2017-12-10T07:10:37.138Z,990.71
2017-12-10T07:11:37.126Z,990.76
2017-12-10T07:12:37.114Z,990.65
2017-12-10T07:13:37.102Z,990.58
2017-12-10T07:14:37.089Z,990.52
2017-12-10T07:15:37.078Z,990.49
2017-12-10T07:16:37.070Z,990.42
2017-12-10T07:17:37.057Z,990.44
2017-12-10T07:18:37.046Z,990.36
2017-12-10T07:19:37.033Z,990.39
2017-12-10T07:20:37.020Z,990.42
2017-12-10T07:21:37.008Z,990.45
2017-12-10T07:22:36.996Z,990.22
2017-12-10T07:23:36.984Z,990.23
2017-12-10T07:24:36.967Z,990.18
2017-12-10T07:25:36.955Z,990.09
2017-12-10T07:26:36.944Z,990.22
2017-12-10T07:27:36.932Z,990.12
2017-12-10T07:28:36.918Z,990.04
2017-12-10T07:29:36.907Z,989.99
2017-12-10T07:30:36.895Z,989.92
2017-12-10T07:31:36.882Z,989.92
2017-12-10T07:32:36.874Z,989.87
2017-12-10T07:33:36.862Z,989.90
2017-12-10T07:34:36.852Z,989.85
2017-12-10T07:35:36.838Z,989.81
2017-12-10T07:36:36.821Z,989.63
2017-12-10T07:37:36.810Z,989.65
2017-12-10T07:38:36.797Z,989.52
2017-12-10T07:39:36.785Z,989.42
2017-12-10T07:40:36.776Z,989.42
2017-12-10T07:41:36.764Z,989.43
2017-12-10T07:42:36.756Z,989.45
2017-12-10T07:43:36.741Z,989.37
2017-12-10T07:44:36.727Z,989.37
2017-12-10T07:45:36.716Z,989.38
2017-12-10T07:46:36.704Z,989.41
2017-12-10T07:47:36.692Z,989.42
2017-12-10T07:48:36.675Z,989.33
2017-12-10T07:49:36.663Z,989.25
2017-12-10T07:50:36.651Z,989.25
2017-12-10T07:51:36.639Z,989.21
2017-12-10T07:52:36.625Z,989.19
2017-12-10T07:53:36.615Z,989.10
2017-12-10T07:54:36.602Z,989.04
2017-12-10T07:55:36.591Z,989.00
2017-12-10T07:56:36.584Z,988.89
2017-12-10T07:57:36.568Z,988.90
2017-12-10T07:58:36.557Z,988.91
2017-12-10T07:59:36.545Z,988.90
2017-12-10T08:00:36.532Z,988.79
2017-12-10T08:01:36.520Z,988.77
2017-12-10T08:02:36.508Z,988.78
2017-12-10T08:03:36.496Z,988.82
2017-12-10T08:04:36.479Z,988.75
2017-12-10T08:05:36.467Z,988.66
2017-12-10T08:06:36.456Z,988.61
2017-12-10T08:07:36.443Z,988.67
2017-12-10T08:08:36.429Z,988.65
2017-12-10T08:09:36.418Z,988.59
2017-12-10T08:10:36.405Z,988.55
2017-12-10T08:11:36.396Z,988.44
2017-12-10T08:12:36.392Z,988.52
2017-12-10T08:13:36.373Z,988.39
2017-12-10T08:14:36.362Z,988.45
2017-12-10T08:15:36.351Z,988.40
2017-12-10T08:16:36.338Z,988.27
2017-12-10T08:17:36.329Z,988.28
2017-12-10T08:18:36.314Z,988.12
2017-12-10T08:19:36.301Z,988.17
2017-12-10T08:20:36.284Z,988.10
2017-12-10T08:21:36.272Z,988.10
2017-12-10T08:22:36.260Z,987.99
2017-12-10T08:23:36.249Z,987.95
2017-12-10T08:24:36.235Z,987.93
2017-12-10T08:25:36.228Z,987.93
2017-12-10T08:26:36.212Z,987.82
2017-12-10T08:27:36.199Z,987.82
2017-12-10T08:28:36.192Z,987.75
2017-12-10T08:29:36.183Z,987.70
2017-12-10T08:30:36.167Z,987.71
2017-12-10T08:31:36.156Z,987.59
2017-12-10T08:32:36.142Z,987.54
2017-12-10T08:33:36.129Z,987.50
2017-12-10T08:34:36.118Z,987.54
2017-12-10T08:35:36.107Z,987.51
2017-12-10T08:36:36.090Z,987.43
2017-12-10T08:37:36.079Z,987.33
2017-12-10T08:38:36.066Z,987.33
2017-12-10T08:39:36.058Z,987.21
2017-12-10T08:40:36.047Z,987.16
2017-12-10T08:41:36.034Z,987.19
2017-12-10T08:42:36.022Z,987.10
2017-12-10T08:43:36.010Z,987.16
2017-12-10T08:44:35.993Z,987.00
2017-12-10T08:45:35.984Z,987.00
2017-12-10T08:46:35.969Z,986.93
2017-12-10T08:47:35.959Z,986.70
2017-12-10T08:48:35.944Z,986.62
2017-12-10T08:49:35.933Z,986.56
2017-12-10T08:50:35.921Z,986.51
2017-12-10T08:51:35.909Z,986.49
2017-12-10T08:52:35.901Z,986.38
2017-12-10T08:53:35.890Z,986.38
2017-12-10T08:54:35.876Z,986.29
2017-12-10T08:55:35.926Z,986.28
2017-12-10T08:56:35.852Z,986.26
2017-12-10T08:57:35.848Z,986.21
2017-12-10T08:58:35.830Z,986.20
2017-12-10T08:59:35.816Z,986.06
2017-12-10T09:00:35.799Z,985.99
2017-12-10T09:01:35.788Z,985.89
2017-12-10T09:02:35.776Z,985.92
2017-12-10T09:04:35.751Z,985.79
2017-12-10T09:05:35.739Z,985.66
2017-12-10T09:06:35.728Z,985.68
2017-12-10T09:07:35.716Z,985.60
2017-12-10T09:08:35.703Z,985.54
2017-12-10T09:09:35.698Z,985.50
2017-12-10T09:10:35.683Z,985.44
2017-12-10T09:11:35.671Z,985.36
2017-12-10T09:12:35.659Z,985.31
2017-12-10T09:13:35.647Z,985.26
2017-12-10T09:14:35.638Z,985.17
2017-12-10T09:15:35.623Z,985.12
2017-12-10T09:16:35.610Z,985.04
2017-12-10T09:17:35.595Z,984.98
2017-12-10T09:18:35.584Z,984.99
2017-12-10T09:19:35.571Z,984.92
2017-12-10T09:20:35.560Z,984.90
2017-12-10T09:21:35.547Z,984.88
2017-12-10T09:22:35.536Z,984.80
2017-12-10T09:23:35.523Z,984.80
2017-12-10T09:24:35.510Z,984.77
2017-12-10T09:25:35.504Z,984.86
2017-12-10T09:26:35.494Z,984.81
2017-12-10T09:27:35.480Z,984.82
2017-12-10T09:28:35.468Z,984.77
2017-12-10T09:29:35.457Z,984.68
2017-12-10T09:30:35.445Z,984.53
2017-12-10T09:31:35.433Z,984.59
2017-12-10T09:32:35.420Z,984.46
2017-12-10T09:33:35.406Z,984.39
2017-12-10T09:34:35.394Z,984.30
2017-12-10T09:35:35.381Z,984.26
2017-12-10T09:36:35.369Z,984.18
2017-12-10T09:37:35.357Z,984.15
2017-12-10T09:38:35.345Z,984.15
2017-12-10T09:39:35.338Z,984.07
2017-12-10T09:40:35.322Z,983.96
2017-12-10T09:41:35.315Z,983.97
2017-12-10T09:42:35.304Z,983.96
2017-12-10T09:43:35.292Z,983.93
2017-12-10T09:44:35.280Z,983.81
2017-12-10T09:45:35.263Z,983.79
2017-12-10T09:46:35.252Z,983.73
2017-12-10T09:47:35.241Z,983.67
2017-12-10T09:48:35.229Z,983.65
2017-12-10T09:49:35.221Z,983.67
2017-12-10T09:50:35.209Z,983.58
2017-12-10T09:51:35.201Z,983.53
2017-12-10T09:52:35.185Z,983.50
2017-12-10T09:53:35.173Z,983.51
2017-12-10T09:54:35.162Z,983.57
2017-12-10T09:55:35.151Z,983.41
2017-12-10T09:56:35.137Z,983.38
2017-12-10T09:57:35.122Z,983.29
2017-12-10T09:58:35.112Z,983.33
2017-12-10T09:59:35.098Z,983.30
2017-12-10T10:00:35.087Z,983.20
2017-12-10T10:01:35.080Z,983.28
2017-12-10T10:02:35.063Z,983.17
2017-12-10T10:03:35.053Z,983.19
2017-12-10T10:04:35.041Z,983.13
2017-12-10T10:05:35.032Z,983.03
2017-12-10T10:06:35.021Z,982.99
2017-12-10T10:07:35.008Z,982.85
2017-12-10T10:08:34.994Z,982.83
2017-12-10T10:09:34.984Z,982.72
2017-12-10T10:10:34.972Z,982.63
2017-12-10T10:11:34.962Z,982.59
2017-12-10T10:12:34.949Z,982.57
2017-12-10T10:13:34.932Z,982.51
2017-12-10T10:14:34.921Z,982.39
2017-12-10T10:15:34.913Z,982.47
2017-12-10T10:16:34.896Z,982.33
2017-12-10T10:17:34.885Z,982.36
2017-12-10T10:18:34.873Z,982.26
2017-12-10T10:19:34.862Z,982.20
2017-12-10T10:20:34.849Z,982.13
2017-12-10T10:21:34.841Z,981.97
2017-12-10T10:22:34.833Z,982.06
2017-12-10T10:23:34.818Z,981.96
2017-12-10T10:24:34.806Z,981.89
2017-12-10T10:25:34.793Z,981.73
2017-12-10T10:26:34.783Z,981.74
2017-12-10T10:27:34.768Z,981.54
2017-12-10T10:28:34.755Z,981.49
2017-12-10T10:29:34.739Z,981.45
2017-12-10T10:30:34.727Z,981.35
2017-12-10T10:31:34.714Z,981.26
2017-12-10T10:32:34.704Z,981.20
2017-12-10T10:33:34.689Z,981.05
2017-12-10T10:34:34.676Z,980.95
2017-12-10T10:35:34.664Z,980.97
2017-12-10T10:36:34.651Z,980.75
2017-12-10T10:37:34.643Z,980.56
2017-12-10T10:38:34.630Z,980.73
2017-12-10T10:39:34.618Z,980.39
2017-12-10T10:40:34.604Z,980.08
2017-12-10T10:41:34.592Z,980.16
2017-12-10T10:42:34.580Z,980.15
2017-12-10T10:43:34.567Z,979.96
2017-12-10T10:44:34.553Z,979.87
2017-12-10T10:45:34.540Z,979.77
2017-12-10T10:46:34.524Z,979.83
2017-12-10T10:47:34.511Z,979.62
2017-12-10T10:48:34.498Z,979.63
2017-12-10T10:49:34.490Z,979.41
2017-12-10T10:50:34.476Z,979.53
2017-12-10T10:51:34.464Z,979.37
2017-12-10T10:52:34.449Z,979.36
2017-12-10T10:53:34.453Z,979.24
2017-12-10T10:54:34.438Z,979.12
2017-12-10T10:55:34.427Z,979.00
2017-12-10T10:56:34.420Z,978.89
2017-12-10T10:57:34.405Z,978.81
2017-12-10T10:58:34.390Z,978.74
2017-12-10T10:59:34.353Z,978.70
2017-12-10T11:00:34.339Z,978.77
2017-12-10T11:01:34.330Z,978.51
2017-12-10T11:02:34.317Z,978.46
2017-12-10T11:03:34.303Z,978.45
2017-12-10T11:04:34.288Z,978.36
2017-12-10T11:05:34.277Z,978.29
2017-12-10T11:06:34.263Z,978.44
2017-12-10T11:07:34.250Z,978.40
2017-12-10T11:08:34.236Z,978.55
2017-12-10T11:09:34.218Z,978.40
2017-12-10T11:10:34.206Z,978.47
2017-12-10T11:11:34.195Z,978.31
2017-12-10T11:12:34.177Z,978.21
2017-12-10T11:13:34.164Z,978.35
2017-12-10T11:14:34.201Z,978.29
2017-12-10T11:15:34.138Z,978.11
2017-12-10T11:16:34.133Z,978.07
2017-12-10T11:17:34.114Z,977.90
2017-12-10T11:18:34.102Z,977.66
2017-12-10T11:19:34.088Z,977.77
2017-12-10T11:20:34.088Z,977.56
2017-12-10T11:21:34.060Z,977.55
2017-12-10T11:22:34.052Z,977.60
2017-12-10T11:23:34.034Z,977.53
2017-12-10T11:24:34.020Z,977.43
2017-12-10T11:25:34.002Z,977.41
2017-12-10T11:26:33.988Z,977.45
2017-12-10T11:27:33.978Z,977.33
2017-12-10T11:28:33.962Z,977.34
2017-12-10T11:29:33.947Z,977.25
2017-12-10T11:30:33.935Z,977.17
2017-12-10T11:31:33.923Z,977.20
2017-12-10T11:32:33.907Z,977.10
2017-12-10T11:33:33.897Z,976.89
2017-12-10T11:34:33.885Z,976.85
2017-12-10T11:35:33.873Z,976.66
2017-12-10T11:36:33.856Z,976.63
2017-12-10T11:37:33.844Z,976.70
2017-12-10T11:38:33.832Z,976.77
2017-12-10T11:39:33.816Z,976.78
2017-12-10T11:40:33.802Z,976.90
2017-12-10T11:41:33.784Z,976.83
2017-12-10T11:42:33.772Z,976.83
2017-12-10T11:43:33.761Z,976.86
2017-12-10T11:44:33.744Z,976.87
2017-12-10T11:45:33.730Z,976.83
2017-12-10T11:46:33.716Z,976.90
2017-12-10T11:47:33.703Z,977.00
2017-12-10T11:48:33.726Z,976.70
2017-12-10T11:49:33.683Z,976.67
2017-12-10T11:50:33.693Z,976.71
2017-12-10T11:51:33.654Z,976.70
2017-12-10T11:52:33.640Z,976.60
2017-12-10T11:53:33.629Z,976.70
2017-12-10T11:54:33.613Z,976.66
2017-12-10T11:55:33.599Z,976.52
2017-12-10T11:56:33.585Z,976.39
2017-12-10T11:57:33.568Z,976.51
2017-12-10T11:58:33.554Z,976.43
2017-12-10T11:59:33.541Z,976.32
2017-12-10T12:00:33.528Z,976.30
2017-12-10T12:01:33.513Z,976.34
2017-12-10T12:02:33.500Z,976.27
2017-12-10T12:03:33.486Z,976.15
2017-12-10T12:04:33.473Z,976.21
2017-12-10T12:05:33.462Z,976.19
2017-12-10T12:06:33.450Z,976.13
2017-12-10T12:07:33.435Z,976.06
2017-12-10T12:08:33.430Z,976.16
2017-12-10T12:09:33.410Z,976.21
2017-12-10T12:10:33.394Z,976.19
2017-12-10T12:11:33.382Z,976.09
2017-12-10T12:12:33.367Z,976.12
2017-12-10T12:13:33.350Z,976.05
2017-12-10T12:14:33.337Z,976.02
2017-12-10T12:15:33.323Z,975.93
2017-12-10T12:16:33.309Z,975.92
2017-12-10T12:17:33.296Z,975.97
2017-12-10T12:18:33.282Z,975.78
2017-12-10T12:19:33.269Z,975.76
2017-12-10T12:20:33.255Z,975.81
2017-12-10T12:21:33.246Z,975.71
2017-12-10T12:22:33.232Z,975.57
2017-12-10T12:23:33.223Z,975.73
2017-12-10T12:24:33.204Z,975.52
2017-12-10T12:25:33.191Z,975.42